• Join FlightAware (Why Join?)
  • Login
  • US Flag 
03:32PM EDT


 

Airport Tracker/Info


-or-


 

Live Flight TrackerFlight Track Log ✈ MTN8305 ✈ 16-May-2013 ✈ KEWR - KBWI

Flight Track Log - Related Links

Times and Time Zones

All times are in EDT time to prevent confusion due to time zone crossing. See the MTN8305 flight status page for this flight to view local times or setup timezone preferences in your user account.

Time Position Orientation Groundspeed Altitude Reporting Facility
EDT Latitude Longitude Course Direction KTS MPH feet Rate Location/Type
04:08AM 40.6500 -74.2000 270° West 122 140 1,600  Level New York TRACON
04:09AM 40.6500 -74.2333 270° West 102 117 2,700 1,020 Climbing New York TRACON
04:10AM 40.6500 -74.2667 270° West 98 113 3,700 600 Climbing New York TRACON
04:11AM 40.6333 -74.3000 237° Southwest 117 135 4,000 120 Climbing New York TRACON
04:12AM 40.6333 -74.3500 270° West 128 147 4,000  Level New York TRACON
04:13AM 40.6333 -74.4437 270° West  Level FlightAware Approximate
04:13AM 40.6333 -74.4000 270° West 131 151 4,000  Level New York TRACON
04:14AM 40.6167 -74.4500 246° West 132 152 4,000  Level New York TRACON
04:15AM 40.6167 -74.5000 270° West 130 150 4,000  Level New York TRACON
04:16AM 40.6000 -74.5333 237° Southwest 127 146 4,000  Level New York TRACON
04:17AM 40.6000 -74.5833 270° West 129 148 4,000  Level New York TRACON
04:18AM 40.6000 -74.6333 270° West 131 151 4,000  Level New York TRACON
04:19AM 40.5833 -74.7167 255° West 133 153 4,000  Level Philadelphia TRACON
04:20AM 40.5833 -74.7667 270° West 129 148 4,000  Level Philadelphia TRACON
04:21AM 40.5833 -74.8167 270° West 130 150 4,000  Level Philadelphia TRACON
04:22AM 40.5667 -74.8500 237° Southwest 129 148 4,000  Level Philadelphia TRACON
04:23AM 40.5667 -74.9000 270° West 127 146 4,000  Level Philadelphia TRACON
04:24AM 40.5667 -74.9500 270° West 126 145 4,000  Level Philadelphia TRACON
04:25AM 40.5667 -75.0000 270° West 132 152 4,000  Level Philadelphia TRACON
04:26AM 40.5333 -75.0333 217° Southwest 152 175 4,000  Level Philadelphia TRACON
04:27AM 40.5000 -75.0667 217° Southwest 143 165 4,000  Level Philadelphia TRACON
04:28AM 40.4667 -75.1000 217° Southwest 145 167 4,000  Level Philadelphia TRACON
04:29AM 40.4333 -75.1333 217° Southwest 146 168 4,000  Level Philadelphia TRACON
04:30AM 40.4000 -75.1667 217° Southwest 146 168 4,000  Level Philadelphia TRACON
04:31AM 40.3667 -75.2000 217° Southwest 147 169 4,000  Level Philadelphia TRACON
04:32AM 40.3333 -75.2333 217° Southwest 146 168 4,000  Level Philadelphia TRACON
04:33AM 40.3167 -75.2667 237° Southwest 144 166 4,000  Level Philadelphia TRACON
04:34AM 40.2833 -75.3000 217° Southwest 146 168 4,000  Level Philadelphia TRACON
04:35AM 40.2500 -75.3333 217° Southwest 146 168 4,000  Level Philadelphia TRACON
04:36AM 40.2167 -75.3667 217° Southwest 145 167 4,000  Level Philadelphia TRACON
04:37AM 40.1833 -75.4000 217° Southwest 145 167 4,000  Level Philadelphia TRACON
04:38AM 40.1500 -75.4333 217° Southwest 146 168 4,000  Level Philadelphia TRACON
04:39AM 40.1167 -75.4667 217° Southwest 145 167 4,000  Level Philadelphia TRACON
04:40AM 40.0833 -75.5000 217° Southwest 143 165 4,000  Level Philadelphia TRACON
04:41AM 40.0500 -75.5167 201° Southwest 143 165 4,000  Level Philadelphia TRACON
04:43AM 40.0333 -75.5667 246° West 140 161 4,000  Level Philadelphia TRACON
04:44AM 40.0000 -75.6000 217° Southwest 139 160 4,000  Level Philadelphia TRACON
04:45AM 39.9667 -75.6500 229° Southwest 140 161 4,000  Level Philadelphia TRACON
04:46AM 39.9333 -75.6833 217° Southwest 140 161 4,000  Level Philadelphia TRACON
04:47AM 39.9167 -75.7167 237° Southwest 140 161 4,000  Level Philadelphia TRACON
04:48AM 39.8833 -75.7500 218° Southwest 140 161 4,000  Level Philadelphia TRACON
04:49AM 39.8500 -75.7833 218° Southwest 142 163 4,000  Level Philadelphia TRACON
04:50AM 39.8333 -75.8333 247° West 143 165 4,000  Level Philadelphia TRACON
04:52AM 39.7667 -75.9000 218° Southwest 146 168 4,000  Level Potomac TRACON
04:53AM 39.7333 -75.9333 218° Southwest 144 166 4,000  Level Potomac TRACON
04:54AM 39.7167 -75.9667 237° Southwest 142 163 4,000  Level Potomac TRACON
04:55AM 39.6833 -76.0167 229° Southwest 143 165 4,000  Level Potomac TRACON
04:56AM 39.6500 -76.0500 218° Southwest 146 168 4,000  Level Potomac TRACON
04:57AM 39.6333 -76.0833 237° Southwest 146 168 4,000  Level Potomac TRACON
04:58AM 39.6000 -76.1333 229° Southwest 145 167 4,000  Level Potomac TRACON
04:59AM 39.5667 -76.1667 218° Southwest 146 168 4,000  Level Potomac TRACON
05:00AM 39.5333 -76.2000 218° Southwest 148 170 4,000  Level Potomac TRACON
05:01AM 39.5000 -76.2333 218° Southwest 145 167 4,000  Level Potomac TRACON
05:02AM 39.4833 -76.2833 247° West 148 170 4,000  Level Potomac TRACON
05:03AM 39.4500 -76.3167 218° Southwest 146 168 4,000  Level Potomac TRACON
05:04AM 39.4167 -76.3500 218° Southwest 146 168 4,000  Level Potomac TRACON
05:05AM 39.4000 -76.3833 237° Southwest 147 169 4,000 -120 Level Potomac TRACON
05:06AM 39.3500 -76.4167 207° Southwest 156 180 3,800 -240 Descending Potomac TRACON
05:07AM 39.3167 -76.4500 218° Southwest 153 176 3,600 -300 Descending Potomac TRACON
05:08AM 39.2833 -76.4833 218° Southwest 157 181 3,200 -420 Descending Potomac TRACON